sensor_id;sensor_type;location;lat;lon;timestamp;temperature;humidity
58638;DHT22;54976;51.510;7.522;2023-02-15T00:00:49;4.50;98.40
58638;DHT22;54976;51.510;7.522;2023-02-15T00:03:50;4.50;98.60
58638;DHT22;54976;51.510;7.522;2023-02-15T00:06:50;4.60;98.40
58638;DHT22;54976;51.510;7.522;2023-02-15T00:09:51;4.50;98.30
58638;DHT22;54976;51.510;7.522;2023-02-15T00:12:52;4.50;98.50
58638;DHT22;54976;51.510;7.522;2023-02-15T00:15:52;4.50;98.10
58638;DHT22;54976;51.510;7.522;2023-02-15T00:18:53;4.50;97.80
58638;DHT22;54976;51.510;7.522;2023-02-15T00:21:53;4.50;97.70
58638;DHT22;54976;51.510;7.522;2023-02-15T00:24:54;4.50;97.50
58638;DHT22;54976;51.510;7.522;2023-02-15T00:27:55;4.30;97.20
58638;DHT22;54976;51.510;7.522;2023-02-15T00:31:11;4.40;97.40
58638;DHT22;54976;51.510;7.522;2023-02-15T00:37:12;4.30;97.90
58638;DHT22;54976;51.510;7.522;2023-02-15T00:40:13;4.40;97.80
58638;DHT22;54976;51.510;7.522;2023-02-15T00:43:14;4.50;97.90
58638;DHT22;54976;51.510;7.522;2023-02-15T00:46:14;4.30;97.80
58638;DHT22;54976;51.510;7.522;2023-02-15T00:49:15;4.10;97.30
58638;DHT22;54976;51.510;7.522;2023-02-15T00:52:15;4.20;97.60
58638;DHT22;54976;51.510;7.522;2023-02-15T00:55:16;4.10;98.10
58638;DHT22;54976;51.510;7.522;2023-02-15T00:58:17;4.20;98.00
58638;DHT22;54976;51.510;7.522;2023-02-15T01:01:19;4.00;98.10
58638;DHT22;54976;51.510;7.522;2023-02-15T01:04:20;3.70;97.90
58638;DHT22;54976;51.510;7.522;2023-02-15T01:07:21;4.10;98.10
58638;DHT22;54976;51.510;7.522;2023-02-15T01:10:22;4.00;98.10
58638;DHT22;54976;51.510;7.522;2023-02-15T01:13:23;3.80;97.70
58638;DHT22;54976;51.510;7.522;2023-02-15T01:16:26;4.10;98.30
58638;DHT22;54976;51.510;7.522;2023-02-15T01:19:27;4.10;98.20
58638;DHT22;54976;51.510;7.522;2023-02-15T01:22:27;3.70;97.90
58638;DHT22;54976;51.510;7.522;2023-02-15T01:25:28;4.20;97.90
58638;DHT22;54976;51.510;7.522;2023-02-15T01:28:28;4.10;97.40
58638;DHT22;54976;51.510;7.522;2023-02-15T01:31:29;3.50;97.90
58638;DHT22;54976;51.510;7.522;2023-02-15T01:34:30;3.50;97.90
58638;DHT22;54976;51.510;7.522;2023-02-15T01:37:31;3.80;98.80
58638;DHT22;54976;51.510;7.522;2023-02-15T01:40:32;3.70;99.10
58638;DHT22;54976;51.510;7.522;2023-02-15T01:43:41;3.90;99.20
58638;DHT22;54976;51.510;7.522;2023-02-15T01:46:50;3.70;98.40
58638;DHT22;54976;51.510;7.522;2023-02-15T01:49:59;3.30;98.20
58638;DHT22;54976;51.510;7.522;2023-02-15T01:56:22;3.40;98.40
58638;DHT22;54976;51.510;7.522;2023-02-15T01:59:24;3.50;98.80
58638;DHT22;54976;51.510;7.522;2023-02-15T02:02:27;3.60;99.60
58638;DHT22;54976;51.510;7.522;2023-02-15T02:05:28;3.50;99.90
58638;DHT22;54976;51.510;7.522;2023-02-15T02:08:29;3.50;99.90
58638;DHT22;54976;51.510;7.522;2023-02-15T02:11:30;3.50;99.90
58638;DHT22;54976;51.510;7.522;2023-02-15T02:14:31;3.80;99.90
58638;DHT22;54976;51.510;7.522;2023-02-15T02:34:30;3.40;99.90
58638;DHT22;54976;51.510;7.522;2023-02-15T02:37:53;3.50;99.90
58638;DHT22;54976;51.510;7.522;2023-02-15T02:44:10;3.50;99.90
58638;DHT22;54976;51.510;7.522;2023-02-15T02:47:18;3.70;99.90
58638;DHT22;54976;51.510;7.522;2023-02-15T02:50:27;3.60;99.90
58638;DHT22;54976;51.510;7.522;2023-02-15T02:53:30;3.40;99.70
58638;DHT22;54976;51.510;7.522;2023-02-15T02:56:42;3.40;99.90
58638;DHT22;54976;51.510;7.522;2023-02-15T02:59:44;3.00;99.80
58638;DHT22;54976;51.510;7.522;2023-02-15T03:02:50;3.40;99.90
58638;DHT22;54976;51.510;7.522;2023-02-15T03:05:53;3.70;99.90
58638;DHT22;54976;51.510;7.522;2023-02-15T03:09:01;3.50;99.90
58638;DHT22;54976;51.510;7.522;2023-02-15T03:12:04;3.60;99.90
58638;DHT22;54976;51.510;7.522;2023-02-15T03:15:13;3.60;99.90
58638;DHT22;54976;51.510;7.522;2023-02-15T03:18:18;3.60;99.90
58638;DHT22;54976;51.510;7.522;2023-02-15T03:22:05;3.60;99.90
58638;DHT22;54976;51.510;7.522;2023-02-15T03:28:01;3.70;99.90
58638;DHT22;54976;51.510;7.522;2023-02-15T03:31:05;3.60;99.90
58638;DHT22;54976;51.510;7.522;2023-02-15T03:34:10;3.60;99.90
58638;DHT22;54976;51.510;7.522;2023-02-15T03:47:02;3.40;99.70
58638;DHT22;54976;51.510;7.522;2023-02-15T03:53:28;3.30;99.90
58638;DHT22;54976;51.510;7.522;2023-02-15T03:56:28;2.90;99.90
58638;DHT22;54976;51.510;7.522;2023-02-15T03:59:29;3.20;99.90
58638;DHT22;54976;51.510;7.522;2023-02-15T04:05:58;3.50;99.90
58638;DHT22;54976;51.510;7.522;2023-02-15T04:09:00;3.40;99.90
58638;DHT22;54976;51.510;7.522;2023-02-15T04:12:19;3.20;99.90
58638;DHT22;54976;51.510;7.522;2023-02-15T04:15:19;3.20;99.90
58638;DHT22;54976;51.510;7.522;2023-02-15T04:18:41;3.30;99.90
58638;DHT22;54976;51.510;7.522;2023-02-15T04:22:00;3.00;99.90
58638;DHT22;54976;51.510;7.522;2023-02-15T04:25:19;2.90;99.90
58638;DHT22;54976;51.510;7.522;2023-02-15T04:28:20;2.90;99.90
58638;DHT22;54976;51.510;7.522;2023-02-15T04:31:21;3.20;99.90
58638;DHT22;54976;51.510;7.522;2023-02-15T04:34:22;2.60;99.90
58638;DHT22;54976;51.510;7.522;2023-02-15T04:37:23;2.90;99.90
58638;DHT22;54976;51.510;7.522;2023-02-15T04:40:23;2.90;99.90
58638;DHT22;54976;51.510;7.522;2023-02-15T04:43:24;2.80;99.90
58638;DHT22;54976;51.510;7.522;2023-02-15T04:46:25;2.90;99.90
58638;DHT22;54976;51.510;7.522;2023-02-15T04:49:25;3.10;99.90
58638;DHT22;54976;51.510;7.522;2023-02-15T04:52:26;2.90;99.90
58638;DHT22;54976;51.510;7.522;2023-02-15T04:55:26;2.70;99.90
58638;DHT22;54976;51.510;7.522;2023-02-15T04:58:27;2.50;99.90
58638;DHT22;54976;51.510;7.522;2023-02-15T05:01:28;2.80;99.90
58638;DHT22;54976;51.510;7.522;2023-02-15T05:04:28;2.50;99.90
58638;DHT22;54976;51.510;7.522;2023-02-15T05:07:29;2.40;99.90
58638;DHT22;54976;51.510;7.522;2023-02-15T05:10:30;2.50;99.90
58638;DHT22;54976;51.510;7.522;2023-02-15T05:13:30;2.20;99.90
58638;DHT22;54976;51.510;7.522;2023-02-15T05:16:31;2.60;99.90
58638;DHT22;54976;51.510;7.522;2023-02-15T05:19:31;2.50;99.90
58638;DHT22;54976;51.510;7.522;2023-02-15T05:22:32;2.40;99.90
58638;DHT22;54976;51.510;7.522;2023-02-15T05:25:33;2.40;99.90
58638;DHT22;54976;51.510;7.522;2023-02-15T05:28:52;2.70;99.90
58638;DHT22;54976;51.510;7.522;2023-02-15T05:31:52;2.50;99.90
58638;DHT22;54976;51.510;7.522;2023-02-15T05:34:53;2.60;99.90
58638;DHT22;54976;51.510;7.522;2023-02-15T05:37:53;2.10;99.90
58638;DHT22;54976;51.510;7.522;2023-02-15T05:40:54;2.50;99.90
58638;DHT22;54976;51.510;7.522;2023-02-15T05:43:55;2.60;99.90
58638;DHT22;54976;51.510;7.522;2023-02-15T05:46:57;2.60;99.90
58638;DHT22;54976;51.510;7.522;2023-02-15T05:49:57;2.30;99.90
58638;DHT22;54976;51.510;7.522;2023-02-15T05:52:58;2.30;99.90
58638;DHT22;54976;51.510;7.522;2023-02-15T05:55:59;2.70;99.90
58638;DHT22;54976;51.510;7.522;2023-02-15T05:59:00;2.40;99.90
58638;DHT22;54976;51.510;7.522;2023-02-15T06:02:00;2.30;99.90
58638;DHT22;54976;51.510;7.522;2023-02-15T06:05:01;2.60;99.90
58638;DHT22;54976;51.510;7.522;2023-02-15T06:08:01;2.20;99.90
58638;DHT22;54976;51.510;7.522;2023-02-15T06:11:03;2.50;99.90
58638;DHT22;54976;51.510;7.522;2023-02-15T06:14:04;2.70;99.90
58638;DHT22;54976;51.510;7.522;2023-02-15T06:17:05;2.70;99.90
58638;DHT22;54976;51.510;7.522;2023-02-15T06:20:06;2.10;99.90
58638;DHT22;54976;51.510;7.522;2023-02-15T06:23:06;2.50;99.90
58638;DHT22;54976;51.510;7.522;2023-02-15T06:26:07;2.90;99.90
58638;DHT22;54976;51.510;7.522;2023-02-15T06:29:08;2.70;99.90
58638;DHT22;54976;51.510;7.522;2023-02-15T06:32:08;2.80;99.90
58638;DHT22;54976;51.510;7.522;2023-02-15T06:35:09;2.80;99.90
58638;DHT22;54976;51.510;7.522;2023-02-15T06:38:09;3.00;99.90
58638;DHT22;54976;51.510;7.522;2023-02-15T06:41:10;3.20;99.90
58638;DHT22;54976;51.510;7.522;2023-02-15T06:44:11;3.00;99.90
58638;DHT22;54976;51.510;7.522;2023-02-15T06:47:11;3.00;99.90
58638;DHT22;54976;51.510;7.522;2023-02-15T06:50:12;2.90;99.90
58638;DHT22;54976;51.510;7.522;2023-02-15T06:53:12;3.40;99.90
58638;DHT22;54976;51.510;7.522;2023-02-15T06:56:13;3.30;99.90
58638;DHT22;54976;51.510;7.522;2023-02-15T06:59:13;2.90;99.90
58638;DHT22;54976;51.510;7.522;2023-02-15T07:02:14;3.50;99.90
58638;DHT22;54976;51.510;7.522;2023-02-15T07:05:15;3.60;99.90
58638;DHT22;54976;51.510;7.522;2023-02-15T07:08:15;3.60;99.90
58638;DHT22;54976;51.510;7.522;2023-02-15T07:11:16;3.60;99.90
58638;DHT22;54976;51.510;7.522;2023-02-15T07:14:35;3.40;99.80
58638;DHT22;54976;51.510;7.522;2023-02-15T07:17:36;3.30;99.40
58638;DHT22;54976;51.510;7.522;2023-02-15T07:20:37;3.80;99.30
58638;DHT22;54976;51.510;7.522;2023-02-15T07:23:39;3.70;99.10
58638;DHT22;54976;51.510;7.522;2023-02-15T07:26:40;3.50;98.70
58638;DHT22;54976;51.510;7.522;2023-02-15T07:29:40;3.90;98.60
58638;DHT22;54976;51.510;7.522;2023-02-15T07:32:41;4.20;98.50
58638;DHT22;54976;51.510;7.522;2023-02-15T07:36:03;4.20;98.30
58638;DHT22;54976;51.510;7.522;2023-02-15T07:39:04;4.40;98.20
58638;DHT22;54976;51.510;7.522;2023-02-15T07:42:05;4.30;98.00
58638;DHT22;54976;51.510;7.522;2023-02-15T07:45:06;4.40;97.70
58638;DHT22;54976;51.510;7.522;2023-02-15T07:48:07;4.40;97.60
58638;DHT22;54976;51.510;7.522;2023-02-15T07:51:09;4.20;97.30
58638;DHT22;54976;51.510;7.522;2023-02-15T07:54:10;4.50;97.30
58638;DHT22;54976;51.510;7.522;2023-02-15T07:57:10;4.60;97.20
58638;DHT22;54976;51.510;7.522;2023-02-15T08:00:12;4.20;96.90
58638;DHT22;54976;51.510;7.522;2023-02-15T08:03:13;4.70;97.00
58638;DHT22;54976;51.510;7.522;2023-02-15T08:06:14;4.70;96.90
58638;DHT22;54976;51.510;7.522;2023-02-15T08:09:15;4.80;96.80
58638;DHT22;54976;51.510;7.522;2023-02-15T08:12:15;4.90;96.60
58638;DHT22;54976;51.510;7.522;2023-02-15T08:15:16;4.90;96.30
58638;DHT22;54976;51.510;7.522;2023-02-15T08:18:17;5.10;96.20
58638;DHT22;54976;51.510;7.522;2023-02-15T08:21:18;5.20;96.00
58638;DHT22;54976;51.510;7.522;2023-02-15T08:24:21;5.30;95.70
58638;DHT22;54976;51.510;7.522;2023-02-15T08:27:22;5.50;95.00
58638;DHT22;54976;51.510;7.522;2023-02-15T08:30:26;5.70;94.10
58638;DHT22;54976;51.510;7.522;2023-02-15T08:33:27;6.00;94.10
58638;DHT22;54976;51.510;7.522;2023-02-15T08:36:29;6.30;93.20
58638;DHT22;54976;51.510;7.522;2023-02-15T08:39:31;6.40;92.30
58638;DHT22;54976;51.510;7.522;2023-02-15T08:42:35;6.60;92.10
58638;DHT22;54976;51.510;7.522;2023-02-15T08:45:36;7.10;91.70
58638;DHT22;54976;51.510;7.522;2023-02-15T08:48:37;7.30;90.40
58638;DHT22;54976;51.510;7.522;2023-02-15T08:51:38;7.70;88.40
58638;DHT22;54976;51.510;7.522;2023-02-15T08:54:38;8.20;85.00
58638;DHT22;54976;51.510;7.522;2023-02-15T08:57:39;8.80;82.60
58638;DHT22;54976;51.510;7.522;2023-02-15T09:00:45;9.20;79.70
58638;DHT22;54976;51.510;7.522;2023-02-15T09:03:47;9.40;77.50
58638;DHT22;54976;51.510;7.522;2023-02-15T09:06:49;9.70;74.50
58638;DHT22;54976;51.510;7.522;2023-02-15T09:09:50;10.30;69.40
58638;DHT22;54976;51.510;7.522;2023-02-15T09:12:50;11.00;64.70
58638;DHT22;54976;51.510;7.522;2023-02-15T09:15:59;12.10;60.10
58638;DHT22;54976;51.510;7.522;2023-02-15T09:19:00;13.00;56.40
58638;DHT22;54976;51.510;7.522;2023-02-15T09:22:01;13.90;54.20
58638;DHT22;54976;51.510;7.522;2023-02-15T09:25:02;14.50;51.00
58638;DHT22;54976;51.510;7.522;2023-02-15T09:28:03;15.30;49.30
58638;DHT22;54976;51.510;7.522;2023-02-15T09:34:12;16.40;45.50
58638;DHT22;54976;51.510;7.522;2023-02-15T09:37:13;17.10;46.30
58638;DHT22;54976;51.510;7.522;2023-02-15T09:40:16;17.50;43.70
58638;DHT22;54976;51.510;7.522;2023-02-15T09:43:40;17.90;43.30
58638;DHT22;54976;51.510;7.522;2023-02-15T09:54:18;19.30;41.40
58638;DHT22;54976;51.510;7.522;2023-02-15T10:00:54;19.50;39.30
58638;DHT22;54976;51.510;7.522;2023-02-15T10:18:14;16.80;41.60
58638;DHT22;54976;51.510;7.522;2023-02-15T10:31:50;14.50;43.40
58638;DHT22;54976;51.510;7.522;2023-02-15T10:35:15;13.90;44.10
58638;DHT22;54976;51.510;7.522;2023-02-15T10:45:21;13.90;44.80
58638;DHT22;54976;51.510;7.522;2023-02-15T10:54:56;14.00;45.30
58638;DHT22;54976;51.510;7.522;2023-02-15T11:05:27;14.20;45.00
58638;DHT22;54976;51.510;7.522;2023-02-15T11:08:37;14.60;44.80
58638;DHT22;54976;51.510;7.522;2023-02-15T11:11:41;14.60;45.20
58638;DHT22;54976;51.510;7.522;2023-02-15T11:14:58;14.90;45.00
58638;DHT22;54976;51.510;7.522;2023-02-15T11:21:33;15.00;44.60
58638;DHT22;54976;51.510;7.522;2023-02-15T11:24:44;14.80;44.60
58638;DHT22;54976;51.510;7.522;2023-02-15T11:27:48;14.60;44.80
58638;DHT22;54976;51.510;7.522;2023-02-15T11:30:53;14.40;45.20
58638;DHT22;54976;51.510;7.522;2023-02-15T11:34:03;14.40;44.80
58638;DHT22;54976;51.510;7.522;2023-02-15T11:37:11;14.40;43.70
58638;DHT22;54976;51.510;7.522;2023-02-15T11:40:33;14.40;44.10
58638;DHT22;54976;51.510;7.522;2023-02-15T11:46:42;14.80;42.10
58638;DHT22;54976;51.510;7.522;2023-02-15T11:49:44;14.80;43.10
58638;DHT22;54976;51.510;7.522;2023-02-15T11:52:45;14.70;43.60
58638;DHT22;54976;51.510;7.522;2023-02-15T11:55:48;15.00;41.70
58638;DHT22;54976;51.510;7.522;2023-02-15T12:01:49;15.30;41.50
58638;DHT22;54976;51.510;7.522;2023-02-15T12:05:03;15.90;41.50
58638;DHT22;54976;51.510;7.522;2023-02-15T12:08:15;16.60;40.10
58638;DHT22;54976;51.510;7.522;2023-02-15T12:11:20;17.50;39.70
58638;DHT22;54976;51.510;7.522;2023-02-15T12:14:22;18.40;38.20
58638;DHT22;54976;51.510;7.522;2023-02-15T12:17:26;18.90;36.70
58638;DHT22;54976;51.510;7.522;2023-02-15T12:20:32;19.10;35.30
58638;DHT22;54976;51.510;7.522;2023-02-15T12:23:33;19.20;36.00
58638;DHT22;54976;51.510;7.522;2023-02-15T12:26:35;19.10;35.40
58638;DHT22;54976;51.510;7.522;2023-02-15T12:29:41;19.00;35.50
58638;DHT22;54976;51.510;7.522;2023-02-15T12:32:52;19.00;34.40
58638;DHT22;54976;51.510;7.522;2023-02-15T12:36:01;18.80;35.80
58638;DHT22;54976;51.510;7.522;2023-02-15T12:42:16;18.90;36.90
58638;DHT22;54976;51.510;7.522;2023-02-15T12:45:32;19.50;36.00
58638;DHT22;54976;51.510;7.522;2023-02-15T12:48:32;19.60;35.50
58638;DHT22;54976;51.510;7.522;2023-02-15T12:51:52;20.00;34.40
58638;DHT22;54976;51.510;7.522;2023-02-15T12:54:53;20.00;33.60
58638;DHT22;54976;51.510;7.522;2023-02-15T13:04:27;19.30;34.40
58638;DHT22;54976;51.510;7.522;2023-02-15T13:07:30;19.30;34.60
58638;DHT22;54976;51.510;7.522;2023-02-15T13:10:39;19.20;34.90
58638;DHT22;54976;51.510;7.522;2023-02-15T13:13:59;19.00;34.80
58638;DHT22;54976;51.510;7.522;2023-02-15T13:17:03;18.90;34.20
58638;DHT22;54976;51.510;7.522;2023-02-15T13:20:13;18.60;35.00
58638;DHT22;54976;51.510;7.522;2023-02-15T13:23:27;18.60;35.80
58638;DHT22;54976;51.510;7.522;2023-02-15T13:26:31;18.70;35.50
58638;DHT22;54976;51.510;7.522;2023-02-15T13:29:34;18.80;33.40
58638;DHT22;54976;51.510;7.522;2023-02-15T13:32:38;18.40;33.90
58638;DHT22;54976;51.510;7.522;2023-02-15T13:39:20;18.00;34.50
58638;DHT22;54976;51.510;7.522;2023-02-15T13:55:00;17.50;35.90
58638;DHT22;54976;51.510;7.522;2023-02-15T14:15:44;18.80;34.00
58638;DHT22;54976;51.510;7.522;2023-02-15T14:19:03;18.90;34.70
58638;DHT22;54976;51.510;7.522;2023-02-15T14:22:18;19.10;34.50
58638;DHT22;54976;51.510;7.522;2023-02-15T14:25:28;19.10;35.10
58638;DHT22;54976;51.510;7.522;2023-02-15T14:28:42;18.90;34.20
58638;DHT22;54976;51.510;7.522;2023-02-15T14:31:49;18.80;34.40
58638;DHT22;54976;51.510;7.522;2023-02-15T14:44:49;19.20;34.40
58638;DHT22;54976;51.510;7.522;2023-02-15T14:57:58;19.10;34.00
58638;DHT22;54976;51.510;7.522;2023-02-15T15:01:09;19.10;34.20
58638;DHT22;54976;51.510;7.522;2023-02-15T15:04:31;18.70;35.10
58638;DHT22;54976;51.510;7.522;2023-02-15T15:10:49;18.00;35.10
58638;DHT22;54976;51.510;7.522;2023-02-15T15:14:08;17.80;35.80
58638;DHT22;54976;51.510;7.522;2023-02-15T15:23:44;16.70;38.30
58638;DHT22;54976;51.510;7.522;2023-02-15T15:26:45;16.20;38.90
58638;DHT22;54976;51.510;7.522;2023-02-15T15:29:51;15.80;39.30
58638;DHT22;54976;51.510;7.522;2023-02-15T15:46:10;14.50;42.40
58638;DHT22;54976;51.510;7.522;2023-02-15T15:49:15;14.20;42.90
58638;DHT22;54976;51.510;7.522;2023-02-15T15:52:20;14.20;43.30
58638;DHT22;54976;51.510;7.522;2023-02-15T15:55:23;13.90;43.50
58638;DHT22;54976;51.510;7.522;2023-02-15T15:58:25;13.80;43.80
58638;DHT22;54976;51.510;7.522;2023-02-15T16:01:28;13.60;44.10
58638;DHT22;54976;51.510;7.522;2023-02-15T16:04:31;13.50;44.30
58638;DHT22;54976;51.510;7.522;2023-02-15T16:07:32;13.30;44.50
58638;DHT22;54976;51.510;7.522;2023-02-15T16:10:33;13.20;44.90
58638;DHT22;54976;51.510;7.522;2023-02-15T16:13:36;13.10;45.10
58638;DHT22;54976;51.510;7.522;2023-02-15T16:16:36;13.00;45.30
58638;DHT22;54976;51.510;7.522;2023-02-15T16:19:42;12.80;45.60
58638;DHT22;54976;51.510;7.522;2023-02-15T16:22:43;12.70;45.90
58638;DHT22;54976;51.510;7.522;2023-02-15T16:28:51;12.40;46.30
58638;DHT22;54976;51.510;7.522;2023-02-15T16:32:05;12.30;46.80
58638;DHT22;54976;51.510;7.522;2023-02-15T16:35:14;12.20;47.00
58638;DHT22;54976;51.510;7.522;2023-02-15T16:38:15;12.10;47.50
58638;DHT22;54976;51.510;7.522;2023-02-15T16:41:25;11.90;47.50
58638;DHT22;54976;51.510;7.522;2023-02-15T16:44:27;11.80;47.80
58638;DHT22;54976;51.510;7.522;2023-02-15T16:47:39;11.60;48.10
58638;DHT22;54976;51.510;7.522;2023-02-15T16:50:40;11.60;48.20
58638;DHT22;54976;51.510;7.522;2023-02-15T16:53:47;11.50;48.30
58638;DHT22;54976;51.510;7.522;2023-02-15T16:56:48;11.40;48.60
58638;DHT22;54976;51.510;7.522;2023-02-15T16:59:51;11.30;48.70
58638;DHT22;54976;51.510;7.522;2023-02-15T17:06:01;11.20;49.20
58638;DHT22;54976;51.510;7.522;2023-02-15T17:09:13;11.10;49.50
58638;DHT22;54976;51.510;7.522;2023-02-15T17:12:47;11.10;49.80
58638;DHT22;54976;51.510;7.522;2023-02-15T17:19:01;10.90;50.30
58638;DHT22;54976;51.510;7.522;2023-02-15T17:22:04;10.80;50.30
58638;DHT22;54976;51.510;7.522;2023-02-15T17:25:19;10.70;50.40
58638;DHT22;54976;51.510;7.522;2023-02-15T17:28:23;10.60;50.80
58638;DHT22;54976;51.510;7.522;2023-02-15T17:31:28;10.60;51.20
58638;DHT22;54976;51.510;7.522;2023-02-15T17:37:49;10.60;51.50
58638;DHT22;54976;51.510;7.522;2023-02-15T17:40:50;10.50;51.80
58638;DHT22;54976;51.510;7.522;2023-02-15T17:43:51;10.50;52.10
58638;DHT22;54976;51.510;7.522;2023-02-15T17:46:51;10.40;52.60
58638;DHT22;54976;51.510;7.522;2023-02-15T17:49:53;10.20;53.10
58638;DHT22;54976;51.510;7.522;2023-02-15T17:52:55;10.20;53.40
58638;DHT22;54976;51.510;7.522;2023-02-15T17:55:56;10.10;53.70
58638;DHT22;54976;51.510;7.522;2023-02-15T17:58:56;10.10;53.90
58638;DHT22;54976;51.510;7.522;2023-02-15T18:01:57;10.10;54.00
58638;DHT22;54976;51.510;7.522;2023-02-15T18:05:16;10.10;53.80
58638;DHT22;54976;51.510;7.522;2023-02-15T18:08:35;10.00;54.10
58638;DHT22;54976;51.510;7.522;2023-02-15T18:11:55;10.00;54.30
58638;DHT22;54976;51.510;7.522;2023-02-15T18:14:57;9.90;55.30
58638;DHT22;54976;51.510;7.522;2023-02-15T18:17:58;9.90;55.60
58638;DHT22;54976;51.510;7.522;2023-02-15T18:20:58;9.90;55.90
58638;DHT22;54976;51.510;7.522;2023-02-15T18:23:59;9.80;55.90
58638;DHT22;54976;51.510;7.522;2023-02-15T18:26:59;9.80;56.10
58638;DHT22;54976;51.510;7.522;2023-02-15T18:30:00;9.80;56.30
58638;DHT22;54976;51.510;7.522;2023-02-15T18:33:01;9.70;56.40
58638;DHT22;54976;51.510;7.522;2023-02-15T18:36:04;9.70;56.60
58638;DHT22;54976;51.510;7.522;2023-02-15T18:39:23;9.60;56.90
58638;DHT22;54976;51.510;7.522;2023-02-15T18:45:30;9.50;57.40
58638;DHT22;54976;51.510;7.522;2023-02-15T18:48:35;9.40;57.60
58638;DHT22;54976;51.510;7.522;2023-02-15T18:51:36;9.40;57.90
58638;DHT22;54976;51.510;7.522;2023-02-15T18:54:39;9.30;58.00
58638;DHT22;54976;51.510;7.522;2023-02-15T18:57:41;9.30;58.50
58638;DHT22;54976;51.510;7.522;2023-02-15T19:00:44;9.20;58.70
58638;DHT22;54976;51.510;7.522;2023-02-15T19:03:46;9.10;59.00
58638;DHT22;54976;51.510;7.522;2023-02-15T19:06:47;9.10;59.30
58638;DHT22;54976;51.510;7.522;2023-02-15T19:09:52;9.10;59.50
58638;DHT22;54976;51.510;7.522;2023-02-15T19:12:54;9.00;59.80
58638;DHT22;54976;51.510;7.522;2023-02-15T19:15:54;9.00;60.10
58638;DHT22;54976;51.510;7.522;2023-02-15T19:18:55;9.00;60.60
58638;DHT22;54976;51.510;7.522;2023-02-15T19:21:56;8.90;61.50
58638;DHT22;54976;51.510;7.522;2023-02-15T19:24:59;8.80;62.50
58638;DHT22;54976;51.510;7.522;2023-02-15T19:28:04;8.70;63.40
58638;DHT22;54976;51.510;7.522;2023-02-15T19:31:10;8.70;64.10
58638;DHT22;54976;51.510;7.522;2023-02-15T19:34:15;8.60;64.70
58638;DHT22;54976;51.510;7.522;2023-02-15T19:37:24;8.70;65.70
58638;DHT22;54976;51.510;7.522;2023-02-15T19:40:30;8.60;65.70
58638;DHT22;54976;51.510;7.522;2023-02-15T19:43:32;8.50;66.00
58638;DHT22;54976;51.510;7.522;2023-02-15T19:46:34;8.50;67.30
58638;DHT22;54976;51.510;7.522;2023-02-15T19:49:36;8.40;68.30
58638;DHT22;54976;51.510;7.522;2023-02-15T19:52:36;8.40;68.60
58638;DHT22;54976;51.510;7.522;2023-02-15T19:55:37;8.30;69.60
58638;DHT22;54976;51.510;7.522;2023-02-15T19:58:38;8.20;70.60
58638;DHT22;54976;51.510;7.522;2023-02-15T20:01:39;8.20;71.30
58638;DHT22;54976;51.510;7.522;2023-02-15T20:04:40;8.20;71.40
58638;DHT22;54976;51.510;7.522;2023-02-15T20:07:43;8.10;71.60
58638;DHT22;54976;51.510;7.522;2023-02-15T20:10:44;8.00;72.20
58638;DHT22;54976;51.510;7.522;2023-02-15T20:13:45;8.10;73.40
58638;DHT22;54976;51.510;7.522;2023-02-15T20:16:45;8.10;73.80
58638;DHT22;54976;51.510;7.522;2023-02-15T20:19:46;8.00;73.90
58638;DHT22;54976;51.510;7.522;2023-02-15T20:22:49;8.00;74.70
58638;DHT22;54976;51.510;7.522;2023-02-15T20:25:51;8.10;75.60
58638;DHT22;54976;51.510;7.522;2023-02-15T20:28:51;8.00;75.90
58638;DHT22;54976;51.510;7.522;2023-02-15T20:31:52;8.00;76.60
58638;DHT22;54976;51.510;7.522;2023-02-15T20:34:53;8.00;76.60
58638;DHT22;54976;51.510;7.522;2023-02-15T20:37:55;8.00;77.40
58638;DHT22;54976;51.510;7.522;2023-02-15T20:41:00;7.90;78.00
58638;DHT22;54976;51.510;7.522;2023-02-15T20:44:27;7.90;78.50
58638;DHT22;54976;51.510;7.522;2023-02-15T20:47:28;7.90;79.20
58638;DHT22;54976;51.510;7.522;2023-02-15T20:50:31;7.90;79.50
58638;DHT22;54976;51.510;7.522;2023-02-15T20:53:32;7.90;80.00
58638;DHT22;54976;51.510;7.522;2023-02-15T20:56:32;7.90;80.20
58638;DHT22;54976;51.510;7.522;2023-02-15T20:59:40;7.80;80.50
58638;DHT22;54976;51.510;7.522;2023-02-15T21:02:40;7.80;81.20
58638;DHT22;54976;51.510;7.522;2023-02-15T21:05:41;7.70;81.60
58638;DHT22;54976;51.510;7.522;2023-02-15T21:08:44;7.70;82.00
58638;DHT22;54976;51.510;7.522;2023-02-15T21:11:53;7.70;82.20
58638;DHT22;54976;51.510;7.522;2023-02-15T21:14:54;7.70;83.00
58638;DHT22;54976;51.510;7.522;2023-02-15T21:17:56;7.60;83.20
58638;DHT22;54976;51.510;7.522;2023-02-15T21:21:03;7.60;83.70
58638;DHT22;54976;51.510;7.522;2023-02-15T21:24:05;7.60;84.70
58638;DHT22;54976;51.510;7.522;2023-02-15T21:27:11;7.60;85.00
58638;DHT22;54976;51.510;7.522;2023-02-15T21:30:17;7.60;84.80
58638;DHT22;54976;51.510;7.522;2023-02-15T21:33:18;7.60;85.20
58638;DHT22;54976;51.510;7.522;2023-02-15T21:36:22;7.50;85.60
58638;DHT22;54976;51.510;7.522;2023-02-15T21:39:24;7.50;86.00
58638;DHT22;54976;51.510;7.522;2023-02-15T21:42:26;7.50;86.50
58638;DHT22;54976;51.510;7.522;2023-02-15T21:45:45;7.50;86.90
58638;DHT22;54976;51.510;7.522;2023-02-15T21:49:15;7.50;87.50
58638;DHT22;54976;51.510;7.522;2023-02-15T21:52:18;7.40;88.00
58638;DHT22;54976;51.510;7.522;2023-02-15T21:55:20;7.40;88.30
58638;DHT22;54976;51.510;7.522;2023-02-15T21:58:23;7.40;88.60
58638;DHT22;54976;51.510;7.522;2023-02-15T22:01:26;7.40;89.00
58638;DHT22;54976;51.510;7.522;2023-02-15T22:04:29;7.40;88.90
58638;DHT22;54976;51.510;7.522;2023-02-15T22:07:29;7.30;89.00
58638;DHT22;54976;51.510;7.522;2023-02-15T22:10:31;7.30;89.80
58638;DHT22;54976;51.510;7.522;2023-02-15T22:13:32;7.30;90.00
58638;DHT22;54976;51.510;7.522;2023-02-15T22:16:33;7.30;90.20
58638;DHT22;54976;51.510;7.522;2023-02-15T22:19:34;7.20;90.20
58638;DHT22;54976;51.510;7.522;2023-02-15T22:22:34;7.20;90.40
58638;DHT22;54976;51.510;7.522;2023-02-15T22:25:35;7.20;90.70
58638;DHT22;54976;51.510;7.522;2023-02-15T22:28:40;7.10;90.80
58638;DHT22;54976;51.510;7.522;2023-02-15T22:31:41;7.10;91.10
58638;DHT22;54976;51.510;7.522;2023-02-15T22:34:42;7.00;91.30
58638;DHT22;54976;51.510;7.522;2023-02-15T22:37:42;7.00;91.80
58638;DHT22;54976;51.510;7.522;2023-02-15T22:40:44;7.00;92.00
58638;DHT22;54976;51.510;7.522;2023-02-15T22:43:46;7.00;92.10
58638;DHT22;54976;51.510;7.522;2023-02-15T22:46:46;7.00;92.20
58638;DHT22;54976;51.510;7.522;2023-02-15T22:49:47;7.00;92.30
58638;DHT22;54976;51.510;7.522;2023-02-15T22:52:49;7.00;92.30
58638;DHT22;54976;51.510;7.522;2023-02-15T22:55:50;7.00;92.40
58638;DHT22;54976;51.510;7.522;2023-02-15T22:58:58;7.00;92.30
58638;DHT22;54976;51.510;7.522;2023-02-15T23:02:00;7.00;92.30
58638;DHT22;54976;51.510;7.522;2023-02-15T23:05:02;7.00;92.50
58638;DHT22;54976;51.510;7.522;2023-02-15T23:08:03;7.00;92.50
58638;DHT22;54976;51.510;7.522;2023-02-15T23:11:04;7.00;92.60
58638;DHT22;54976;51.510;7.522;2023-02-15T23:17:26;7.00;92.80